Time;durP1;ratioP1;P1;durP2;ratioP2;P2;SDS_P1;SDS_P2;PMS_P1;PMS_P2;Temp;Humidity;BMP_temperature;BMP_pressure;BME280_temperature;BME280_humidity;BME280_pressure;Samples;Min_cycle;Max_cycle;Signal;HPM_P1;HPM_P2
2020/12/18 00:02:33;;;;;;;71.35;33.42;;;;;;;2.30;100.00;100005.05;4245657;81;28635;-87
2020/12/18 00:08:39;;;;;;;63.25;30.12;;;;;;;2.31;100.00;100009.85;4253465;80;28608;-88
2020/12/18 00:14:42;;;;;;;61.58;30.05;;;;;;;2.49;100.00;100007.17;4336327;80;28570;-89
2020/12/18 00:20:50;;;;;;;61.20;30.02;;;;;;;2.59;100.00;100002.59;4190246;82;28589;-87
2020/12/18 00:26:52;;;;;;;61.25;28.35;;;;;;;2.60;100.00;100008.75;4334226;80;28648;-85
2020/12/18 00:32:54;;;;;;;61.77;27.25;;;;;;;2.59;100.00;100003.92;4334068;80;28554;-88
2020/12/18 00:38:57;;;;;;;61.83;29.20;;;;;;;2.60;100.00;100010.08;4355665;80;28613;-88
2020/12/18 00:45:06;;;;;;;61.83;27.20;;;;;;;2.51;100.00;100010.02;4332510;80;28556;-87
2020/12/18 00:51:09;;;;;;;65.37;29.87;;;;;;;2.72;100.00;100018.12;4361389;81;28548;-87
2020/12/18 00:57:16;;;;;;;67.55;30.30;;;;;;;2.61;100.00;100023.69;4338469;80;28573;-86
2020/12/18 01:03:19;;;;;;;70.20;31.37;;;;;;;2.70;100.00;100036.05;4325489;80;28570;-86
2020/12/18 01:09:25;;;;;;;64.10;30.02;;;;;;;2.63;100.00;100033.66;4331504;80;28598;-86
2020/12/18 01:15:29;;;;;;;64.17;28.87;;;;;;;2.58;100.00;100031.98;4330759;80;28623;-86
2020/12/18 01:21:36;;;;;;;68.40;30.72;;;;;;;2.63;100.00;100026.54;4348377;80;28601;-88
2020/12/18 01:27:38;;;;;;;67.15;30.40;;;;;;;2.70;100.00;100046.66;4320224;81;28630;-88
2020/12/18 01:33:40;;;;;;;61.13;27.80;;;;;;;2.81;100.00;100032.28;4249156;82;28564;-88
2020/12/18 01:39:44;;;;;;;52.70;26.70;;;;;;;2.84;100.00;100037.30;4342881;80;28544;-85
2020/12/18 01:45:47;;;;;;;58.15;28.12;;;;;;;2.79;100.00;100040.42;4333672;80;28569;-85
2020/12/18 01:51:54;;;;;;;64.87;28.98;;;;;;;2.94;100.00;100035.86;4346728;80;28546;-86
2020/12/18 01:57:59;;;;;;;54.80;26.90;;;;;;;2.93;100.00;100044.34;4347312;78;28577;-87
2020/12/18 02:04:03;;;;;;;50.92;24.23;;;;;;;2.77;100.00;100041.56;4370627;78;28641;-86
2020/12/18 02:10:07;;;;;;;47.17;21.97;;;;;;;2.88;100.00;100035.99;4359209;78;28580;-87
2020/12/18 02:16:11;;;;;;;48.60;24.12;;;;;;;3.00;100.00;100038.38;4333203;80;28574;-87
2020/12/18 02:22:18;;;;;;;54.00;24.10;;;;;;;3.05;100.00;100025.47;4306179;80;28548;-87
2020/12/18 02:28:31;;;;;;;53.35;22.80;;;;;;;3.13;100.00;100024.68;4377656;79;74729;-85
2020/12/18 02:34:34;;;;;;;51.42;22.45;;;;;;;3.02;100.00;100041.23;4304654;80;28566;-86
2020/12/18 02:46:47;;;;;;;50.80;23.57;;;;;;;3.09;100.00;100037.45;4383646;79;87257;-87
2020/12/18 02:52:50;;;;;;;50.10;22.93;;;;;;;3.10;100.00;100035.63;4301081;80;28714;-87
2020/12/18 02:59:10;;;;;;;49.98;22.85;;;;;;;3.17;100.00;100041.48;4395662;79;85493;-88
2020/12/18 03:05:14;;;;;;;43.55;20.70;;;;;;;3.11;100.00;100027.48;4314092;80;28555;-88
2020/12/18 03:11:27;;;;;;;49.05;22.60;;;;;;;3.11;100.00;100026.16;4381713;79;73401;-88
2020/12/18 03:17:33;;;;;;;47.40;22.65;;;;;;;3.01;100.00;100026.77;4335717;80;28549;-88
2020/12/18 03:23:35;;;;;;;55.30;25.30;;;;;;;3.09;100.00;100031.31;4298742;80;28544;-87
2020/12/18 03:30:00;;;;;;;49.67;23.40;;;;;;;3.15;100.00;100035.50;4403281;79;85712;-87
2020/12/18 03:36:03;;;;;;;50.38;23.70;;;;;;;3.09;100.00;100037.95;4314314;80;28582;-87
2020/12/18 03:42:05;;;;;;;49.10;23.95;;;;;;;3.05;100.00;100036.92;4302260;80;28633;-86
2020/12/18 03:48:08;;;;;;;50.63;24.10;;;;;;;3.22;100.00;100048.98;4338567;80;28549;-86
2020/12/18 03:54:26;;;;;;;50.20;22.77;;;;;;;3.26;100.00;100042.86;4601038;76;85509;-85
2020/12/18 04:00:38;;;;;;;48.17;22.73;;;;;;;3.12;100.00;100049.08;4429043;78;28602;-88
2020/12/18 04:06:43;;;;;;;50.92;23.85;;;;;;;3.15;100.00;100042.14;4325767;80;28561;-87
2020/12/18 04:12:45;;;;;;;47.55;23.73;;;;;;;3.10;100.00;100048.92;4342198;80;28559;-86
2020/12/18 04:18:51;;;;;;;47.35;22.67;;;;;;;3.21;100.00;100048.14;4369007;80;28644;-88
2020/12/18 04:24:53;;;;;;;42.93;20.32;;;;;;;3.19;100.00;100046.65;4350510;80;28629;-87
2020/12/18 04:30:58;;;;;;;43.73;21.85;;;;;;;3.23;100.00;100046.66;4367560;80;28551;-87
2020/12/18 04:37:02;;;;;;;;;;;;;;;3.29;100.00;100057.16;4349970;80;28652;-86
2020/12/18 04:43:07;;;;;;;43.95;21.52;;;;;;;3.17;100.00;100064.07;4343625;80;20174;-87
2020/12/18 04:49:14;;;;;;;43.13;19.27;;;;;;;3.15;100.00;100071.85;4275077;80;28679;-87
2020/12/18 04:55:20;;;;;;;40.08;19.52;;;;;;;3.27;100.00;100068.44;4351290;80;28640;-86
2020/12/18 05:01:36;;;;;;;44.33;20.97;;;;;;;3.44;100.00;100076.85;4372855;79;86559;-85
2020/12/18 05:07:40;;;;;;;44.03;21.48;;;;;;;3.38;100.00;100076.14;4315658;80;28547;-87
2020/12/18 05:13:45;;;;;;;38.20;18.12;;;;;;;3.40;100.00;100078.14;4317624;80;28636;-87
2020/12/18 05:19:51;;;;;;;37.58;18.42;;;;;;;3.36;100.00;100074.14;4318973;80;28645;-87
2020/12/18 05:26:11;;;;;;;37.38;17.30;;;;;;;3.38;100.00;100077.95;4307846;80;28551;-86
2020/12/18 05:32:16;;;;;;;35.30;16.27;;;;;;;3.38;100.00;100078.80;4312267;80;28611;-86
2020/12/18 05:38:40;;;;;;;41.55;19.15;;;;;;;3.42;100.00;100091.28;4463094;77;85529;-86
2020/12/18 05:44:47;;;;;;;35.23;16.57;;;;;;;3.30;100.00;100096.88;4308819;80;28552;-88
2020/12/18 05:51:00;;;;;;;47.15;19.05;;;;;;;3.35;100.00;100109.19;4380871;79;85127;-87
2020/12/18 05:57:13;;;;;;;37.50;17.60;;;;;;;3.32;100.00;100109.51;4332198;80;28573;-86
2020/12/18 06:03:20;;;;;;;37.65;17.75;;;;;;;3.33;100.00;100105.86;4315872;80;28640;-87
2020/12/18 06:09:28;;;;;;;45.17;20.23;;;;;;;3.34;100.00;100119.48;4319235;81;28538;-87
2020/12/18 06:15:34;;;;;;;45.40;18.87;;;;;;;3.38;100.00;100120.48;4309187;80;28552;-85
2020/12/18 06:21:38;;;;;;;38.48;18.52;;;;;;;3.33;100.00;100130.27;4323714;80;28564;-90
2020/12/18 06:27:42;;;;;;;38.05;18.52;;;;;;;3.28;100.00;100133.42;4333644;80;28572;-89
2020/12/18 06:33:53;;;;;;;39.30;18.20;;;;;;;3.30;100.00;100138.56;4291258;80;28599;-89
2020/12/18 06:40:33;;;;;;;38.40;17.25;;;;;;;3.29;100.00;100132.42;4602689;76;85514;-91
2020/12/18 06:47:21;;;;;;;37.25;17.30;;;;;;;3.35;100.00;100129.64;4373446;79;85497;-84
2020/12/18 06:53:43;;;;;;;35.88;16.95;;;;;;;3.37;100.00;100141.42;4340621;81;28581;-91
2020/12/18 06:59:47;;;;;;;38.42;17.67;;;;;;;3.30;100.00;100145.20;4305946;81;28559;-88
2020/12/18 07:05:55;;;;;;;38.08;17.40;;;;;;;3.26;100.00;100145.19;4314009;80;28573;-87
2020/12/18 07:12:02;;;;;;;38.50;17.50;;;;;;;3.25;100.00;100152.31;4325454;81;28578;-87
2020/12/18 07:18:04;;;;;;;41.10;18.52;;;;;;;3.32;100.00;100152.52;4337045;81;28610;-86
2020/12/18 07:24:06;;;;;;;37.00;16.85;;;;;;;3.35;100.00;100158.87;4311181;80;28552;-88
2020/12/18 07:30:12;;;;;;;34.65;15.93;;;;;;;3.37;100.00;100166.20;4346729;81;28571;-90
2020/12/18 07:36:15;;;;;;;39.95;17.80;;;;;;;3.49;100.00;100171.59;4279595;81;28582;-87
2020/12/18 07:42:18;;;;;;;41.23;17.80;;;;;;;3.51;100.00;100171.92;4312167;81;28623;-93
2020/12/18 07:48:31;;;;;;;37.00;17.05;;;;;;;3.51;100.00;100177.23;4332907;81;28573;-92
2020/12/18 07:54:36;;;;;;;44.15;18.98;;;;;;;3.59;100.00;100183.95;4321741;81;28560;-88
2020/12/18 08:00:38;;;;;;;35.50;17.12;;;;;;;3.61;100.00;100189.94;4354149;81;28579;-83
2020/12/18 08:06:42;;;;;;;39.67;17.40;;;;;;;3.66;100.00;100179.67;4323389;80;28649;-81
2020/12/18 08:12:51;;;;;;;43.87;20.40;;;;;;;3.68;100.00;100184.81;4326923;80;28565;-82
2020/12/18 08:18:59;;;;;;;38.90;17.73;;;;;;;3.82;100.00;100196.70;4340173;80;28584;-82
2020/12/18 08:25:04;;;;;;;40.20;17.00;;;;;;;3.89;100.00;100195.08;4334565;80;28541;-81
2020/12/18 08:31:08;;;;;;;40.33;17.98;;;;;;;3.98;100.00;100197.27;4326615;81;28578;-82
2020/12/18 08:43:28;;;;;;;40.48;19.30;;;;;;;4.27;100.00;100194.73;4600411;75;77316;-81
2020/12/18 08:49:32;;;;;;;41.77;18.82;;;;;;;4.25;100.00;100212.70;4497884;78;28566;-81
2020/12/18 08:55:34;;;;;;;38.85;16.95;;;;;;;4.22;100.00;100214.34;4485008;78;28562;-84
2020/12/18 09:01:36;;;;;;;41.50;17.98;;;;;;;4.43;100.00;100224.58;4507572;78;28602;-83
2020/12/18 09:07:42;;;;;;;42.43;19.05;;;;;;;4.52;100.00;100217.44;4499952;78;28605;-81
2020/12/18 09:13:48;;;;;;;40.78;18.37;;;;;;;4.52;100.00;100219.61;4494801;78;28534;-82
2020/12/18 09:19:52;;;;;;;44.18;20.37;;;;;;;4.68;100.00;100214.83;4515119;78;28550;-82
2020/12/18 09:25:58;;;;;;;42.73;19.62;;;;;;;4.68;100.00;100221.48;4475775;79;28525;-88
2020/12/18 09:32:00;;;;;;;38.30;16.87;;;;;;;4.77;100.00;100228.16;4518533;79;28604;-88
2020/12/18 09:38:03;;;;;;;42.93;19.20;;;;;;;4.90;100.00;100222.37;4516257;78;28593;-86
2020/12/18 09:44:05;;;;;;;40.03;18.80;;;;;;;5.08;100.00;100222.21;4515696;79;28558;-90
2020/12/18 09:50:08;;;;;;;37.15;17.52;;;;;;;5.25;100.00;100219.05;4516429;79;28563;-89
2020/12/18 09:56:14;;;;;;;38.63;18.25;;;;;;;5.38;100.00;100214.55;4514073;79;28562;-85
2020/12/18 10:02:17;;;;;;;43.35;20.23;;;;;;;5.39;100.00;100211.69;4474246;78;28557;-86
2020/12/18 10:08:30;;;;;;;36.50;17.35;;;;;;;5.51;100.00;100209.52;4318148;82;28595;-81
2020/12/18 10:14:32;;;;;;;39.15;18.42;;;;;;;5.51;100.00;100207.34;4312617;81;28612;-85
2020/12/18 10:20:34;;;;;;;35.00;16.27;;;;;;;5.59;100.00;100211.33;4304221;82;28605;-83
2020/12/18 10:26:36;;;;;;;41.40;17.92;;;;;;;5.55;100.00;100220.17;4301644;82;28600;-80
2020/12/18 10:32:39;;;;;;;39.35;18.37;;;;;;;5.64;100.00;100218.83;4292267;81;28602;-81
2020/12/18 10:38:41;;;;;;;42.93;18.95;;;;;;;5.64;100.00;100222.83;4297471;81;28667;-84
2020/12/18 10:44:44;;;;;;;43.38;20.37;;;;;;;5.62;100.00;100222.17;4306528;83;28563;-83
2020/12/18 10:50:47;;;;;;;42.03;18.27;;;;;;;5.69;100.00;100225.33;4303296;81;28547;-91
2020/12/18 10:56:51;;;;;;;42.88;18.80;;;;;;;5.75;100.00;100222.99;4303722;81;28555;-84
2020/12/18 11:02:53;;;;;;;44.25;20.88;;;;;;;5.94;100.00;100221.28;4301776;81;28601;-81
2020/12/18 11:09:02;;;;;;;46.73;20.10;;;;;;;5.96;100.00;100222.42;4289852;82;28554;-83
2020/12/18 11:15:04;;;;;;;42.73;18.62;;;;;;;5.95;100.00;100222.09;4292216;82;28550;-83
2020/12/18 11:21:07;;;;;;;45.92;21.17;;;;;;;6.09;100.00;100210.75;4288652;82;28567;-81
2020/12/18 11:27:12;;;;;;;44.73;20.00;;;;;;;6.19;100.00;100209.19;4287668;82;28575;-82
2020/12/18 11:33:14;;;;;;;45.12;20.25;;;;;;;6.19;100.00;100213.69;4282472;82;28575;-82
2020/12/18 11:39:16;;;;;;;47.67;22.77;;;;;;;6.14;100.00;100223.55;4285658;82;28616;-83
2020/12/18 11:45:19;;;;;;;43.48;21.23;;;;;;;6.17;100.00;100214.37;4290952;82;28569;-83
2020/12/18 11:51:31;;;;;;;43.65;21.07;;;;;;;6.21;100.00;100212.52;4291707;82;28552;-86
2020/12/18 11:57:33;;;;;;;48.08;22.37;;;;;;;6.23;100.00;100213.17;4284490;81;28605;-84
2020/12/18 12:03:35;;;;;;;46.02;21.45;;;;;;;6.30;100.00;100212.00;4191632;83;28624;-84
2020/12/18 12:09:37;;;;;;;46.08;21.25;;;;;;;6.28;100.00;100203.30;4176888;84;28643;-83
2020/12/18 12:15:39;;;;;;;53.20;22.87;;;;;;;6.34;100.00;100207.95;4174211;84;28597;-83
2020/12/18 12:21:41;;;;;;;50.92;23.77;;;;;;;6.34;100.00;100205.29;4174043;84;28587;-83
2020/12/18 12:27:43;;;;;;;49.25;22.50;;;;;;;6.31;100.00;100209.66;4147230;84;28607;-82
2020/12/18 12:33:46;;;;;;;46.45;22.13;;;;;;;6.37;100.00;100216.13;4150978;85;28625;-83
2020/12/18 12:39:49;;;;;;;50.65;24.60;;;;;;;6.25;100.00;100207.17;4160095;84;28628;-78
2020/12/18 12:45:51;;;;;;;47.85;24.05;;;;;;;6.46;100.00;100209.75;4196585;83;28667;-80
2020/12/18 12:51:59;;;;;;;46.88;21.70;;;;;;;6.44;100.00;100212.26;4202348;83;28651;-83
2020/12/18 12:58:02;;;;;;;44.70;22.77;;;;;;;6.46;100.00;100207.56;4225856;83;28595;-83
2020/12/18 13:04:04;;;;;;;51.30;23.45;;;;;;;6.47;100.00;100204.73;4212808;83;28581;-82
2020/12/18 13:10:06;;;;;;;55.48;25.25;;;;;;;6.32;100.00;100201.12;4094120;85;28554;-83
2020/12/18 13:16:21;;;;;;;49.23;22.73;;;;;;;6.25;100.00;100198.32;4101396;86;28564;-83
2020/12/18 13:22:25;;;;;;;52.93;24.32;;;;;;;6.35;100.00;100204.28;4139189;85;28560;-85
2020/12/18 13:28:27;;;;;;;53.50;27.17;;;;;;;6.26;100.00;100203.50;4135809;86;28603;-86
2020/12/18 13:34:29;;;;;;;55.03;26.25;;;;;;;6.25;100.00;100201.84;4135909;86;28592;-87
2020/12/18 13:40:31;;;;;;;52.60;24.92;;;;;;;6.26;100.00;100203.98;4135401;86;28595;-86
2020/12/18 13:46:34;;;;;;;46.10;23.52;;;;;;;6.05;100.00;100203.25;4141775;84;28624;-85
2020/12/18 13:52:38;;;;;;;53.33;24.35;;;;;;;6.03;100.00;100197.23;4146656;84;28601;-86
2020/12/18 13:58:43;;;;;;;55.35;26.93;;;;;;;5.91;100.00;100200.24;4099371;85;28593;-87
2020/12/18 14:04:44;;;;;;;54.98;25.72;;;;;;;5.61;100.00;100194.64;4145247;84;28620;-87
2020/12/18 14:10:47;;;;;;;53.08;24.65;;;;;;;5.26;100.00;100208.70;4168531;84;28580;-86
2020/12/18 14:16:49;;;;;;;51.58;24.67;;;;;;;5.04;100.00;100211.04;4138637;85;28661;-87
2020/12/18 14:22:51;;;;;;;51.05;23.45;;;;;;;4.91;100.00;100212.04;4155247;84;28620;-86
2020/12/18 14:28:53;;;;;;;56.45;25.65;;;;;;;4.77;100.00;100216.17;4151055;84;28567;-87
2020/12/18 14:34:55;;;;;;;54.95;26.82;;;;;;;4.60;100.00;100218.31;4177394;84;28552;-89
2020/12/18 14:40:57;;;;;;;55.28;26.73;;;;;;;4.41;100.00;100219.40;4140256;84;28563;-87
2020/12/18 14:47:00;;;;;;;60.88;28.30;;;;;;;4.14;100.00;100213.33;4175408;84;28615;-86
2020/12/18 14:53:02;;;;;;;55.90;26.65;;;;;;;3.84;100.00;100208.02;4145995;84;28674;-88
2020/12/18 14:59:04;;;;;;;50.65;25.92;;;;;;;3.60;100.00;100203.75;4105418;85;28665;-87
2020/12/18 15:05:14;;;;;;;58.45;25.72;;;;;;;3.51;100.00;100198.52;4113902;85;28604;-88
2020/12/18 15:11:16;;;;;;;60.52;27.22;;;;;;;3.37;100.00;100201.23;4208465;83;28611;-86
2020/12/18 15:17:19;;;;;;;60.20;28.45;;;;;;;3.12;100.00;100202.39;4216726;83;28572;-86
2020/12/18 15:23:22;;;;;;;59.75;28.65;;;;;;;2.99;100.00;100212.07;4191880;84;28548;-87
2020/12/18 15:29:24;;;;;;;60.98;28.70;;;;;;;2.81;100.00;100228.83;4194689;83;28620;-86
2020/12/18 15:35:26;;;;;;;57.78;26.73;;;;;;;2.78;100.00;100239.30;4175164;83;28570;-86
2020/12/18 15:41:29;;;;;;;58.30;26.23;;;;;;;2.70;100.00;100233.89;4197771;84;28581;-85
2020/12/18 15:47:32;;;;;;;58.17;29.18;;;;;;;2.67;100.00;100231.55;4178711;84;28645;-85
2020/12/18 15:53:36;;;;;;;60.65;26.95;;;;;;;2.48;100.00;100232.00;4195808;83;28608;-86
2020/12/18 15:59:38;;;;;;;64.05;29.77;;;;;;;2.24;100.00;100237.84;4191087;83;28584;-86
2020/12/18 16:05:40;;;;;;;60.90;27.77;;;;;;;2.10;100.00;100232.53;4145016;84;28963;-85
2020/12/18 16:11:46;;;;;;;57.90;27.40;;;;;;;1.87;100.00;100232.05;4172650;84;29021;-85
2020/12/18 16:17:48;;;;;;;59.10;26.55;;;;;;;1.79;100.00;100232.30;4177041;84;28681;-86
2020/12/18 16:23:51;;;;;;;65.65;29.77;;;;;;;1.63;100.00;100227.61;4169024;84;28572;-87
2020/12/18 16:29:53;;;;;;;63.28;29.20;;;;;;;1.65;100.00;100225.64;4156353;84;28623;-83
2020/12/18 16:35:59;;;;;;;69.60;33.08;;;;;;;1.49;100.00;100226.71;4160021;84;28553;-83
2020/12/18 16:42:06;;;;;;;63.75;28.65;;;;;;;1.34;100.00;100232.47;4147675;84;28557;-82
2020/12/18 16:48:08;;;;;;;61.95;28.35;;;;;;;1.20;100.00;100236.38;4155789;84;28544;-84
2020/12/18 16:54:11;;;;;;;55.45;28.10;;;;;;;1.14;100.00;100242.22;4150025;84;28583;-85
2020/12/18 17:00:14;;;;;;;58.10;27.98;;;;;;;1.19;100.00;100239.16;4139341;84;28635;-82
2020/12/18 17:06:17;;;;;;;59.58;27.65;;;;;;;1.13;100.00;100248.50;4170075;84;28647;-81
2020/12/18 17:12:20;;;;;;;60.60;28.32;;;;;;;0.88;100.00;100251.20;4171580;84;28589;-83
2020/12/18 17:18:24;;;;;;;65.12;29.00;;;;;;;0.80;100.00;100248.78;4150453;84;28626;-82
2020/12/18 17:24:26;;;;;;;65.47;29.45;;;;;;;0.64;100.00;100252.44;4214876;83;28608;-81
2020/12/18 17:30:28;;;;;;;59.42;28.12;;;;;;;0.67;100.00;100250.36;4160809;84;28650;-84
2020/12/18 17:36:30;;;;;;;62.50;28.47;;;;;;;0.48;100.00;100250.31;4170134;84;43453;-84
2020/12/18 17:42:32;;;;;;;73.45;33.18;;;;;;;0.44;100.00;100256.86;4172743;84;28600;-81
2020/12/18 17:48:34;;;;;;;66.22;30.68;;;;;;;0.46;100.00;100256.23;4136960;84;44109;-82
2020/12/18 17:54:38;;;;;;;64.90;30.72;;;;;;;0.23;100.00;100261.23;4146586;84;43475;-80
2020/12/18 18:00:40;;;;;;;59.40;29.18;;;;;;;0.16;100.00;100264.55;4177111;84;28564;-82
2020/12/18 18:06:42;;;;;;;67.85;30.75;;;;;;;0.13;100.00;100266.49;4145553;84;44153;-83
2020/12/18 18:12:44;;;;;;;61.60;29.98;;;;;;;0.08;100.00;100260.75;4108874;85;43747;-84
2020/12/18 18:18:48;;;;;;;66.45;31.45;;;;;;;0.06;100.00;100257.91;4106447;85;44141;-83
2020/12/18 18:24:50;;;;;;;67.87;30.60;;;;;;;-0.05;100.00;100251.73;4120403;86;44139;-85
2020/12/18 18:30:52;;;;;;;67.20;31.30;;;;;;;0.12;100.00;100260.00;4112510;85;44126;-84
2020/12/18 18:36:55;;;;;;;70.45;33.33;;;;;;;0.30;100.00;100256.73;4109798;85;44085;-83
2020/12/18 18:42:57;;;;;;;76.87;35.43;;;;;;;0.23;100.00;100263.05;4117348;85;43009;-84
2020/12/18 18:49:00;;;;;;;68.15;32.05;;;;;;;-0.09;100.00;100269.31;4104515;85;44086;-82
2020/12/18 18:55:05;;;;;;;67.45;29.80;;;;;;;-0.13;100.00;100277.14;4119112;85;44136;-83
2020/12/18 19:01:08;;;;;;;63.83;29.10;;;;;;;0.02;100.00;100279.81;4117782;85;43786;-84
2020/12/18 19:07:10;;;;;;;65.65;30.77;;;;;;;-0.20;100.00;100284.75;4141742;83;43737;-83
2020/12/18 19:13:13;;;;;;;67.45;30.55;;;;;;;-0.24;100.00;100274.11;4166983;84;44143;-82
2020/12/18 19:19:15;;;;;;;60.80;30.00;;;;;;;-0.37;100.00;100277.76;4151061;84;43062;-84
2020/12/18 19:25:18;;;;;;;57.05;28.95;;;;;;;-0.52;100.00;100277.74;4204550;83;43046;-82
2020/12/18 19:31:21;;;;;;;62.15;29.45;;;;;;;-0.47;100.00;100275.53;4173136;84;43432;-83
2020/12/18 19:37:24;;;;;;;60.20;29.35;;;;;;;-0.49;100.00;100284.93;4175552;84;43067;-83
2020/12/18 19:43:26;;;;;;;57.23;26.80;;;;;;;-0.55;100.00;100289.39;4167489;84;43742;-84
2020/12/18 19:49:30;;;;;;;53.40;26.80;;;;;;;-0.59;100.00;100281.38;4182439;84;43652;-83
2020/12/18 19:55:32;;;;;;;58.48;27.35;;;;;;;-0.78;100.00;100282.05;4178883;84;42204;-83
2020/12/18 20:01:35;;;;;;;54.93;26.27;;;;;;;-0.85;100.00;100274.65;4176551;84;43422;-82
2020/12/18 20:07:38;;;;;;;55.43;27.37;;;;;;;-0.78;100.00;100268.38;4195071;84;43808;-84
2020/12/18 20:13:42;;;;;;;59.18;28.00;;;;;;;-0.71;100.00;100270.02;4183735;84;43217;-84
2020/12/18 20:19:45;;;;;;;65.80;28.25;;;;;;;-0.61;100.00;100266.14;4148580;84;44160;-81
2020/12/18 20:25:48;;;;;;;63.68;28.38;;;;;;;-0.44;100.00;100264.73;4204842;83;43455;-80
2020/12/18 20:31:50;;;;;;;61.68;28.32;;;;;;;-0.43;100.00;100258.47;4134624;84;43799;-80
2020/12/18 20:37:53;;;;;;;66.85;28.10;;;;;;;-0.53;100.00;100249.64;4195630;83;43433;-82
2020/12/18 20:44:01;;;;;;;60.58;28.05;;;;;;;-0.74;100.00;100253.12;4204749;83;43402;-82
2020/12/18 20:50:15;;;;;;;57.35;27.48;;;;;;;-0.96;100.00;100252.72;4160649;84;42957;-81
2020/12/18 20:56:19;;;;;;;59.05;26.87;;;;;;;-1.03;100.00;100248.43;4167970;84;28623;-87
2020/12/18 21:02:27;;;;;;;58.60;26.77;;;;;;;-1.03;100.00;100248.43;4154362;85;28595;-85
2020/12/18 21:08:29;;;;;;;53.73;26.77;;;;;;;-0.90;100.00;100238.53;4140838;84;28555;-82
2020/12/18 21:14:31;;;;;;;54.95;26.50;;;;;;;-0.78;100.00;100241.11;4178696;84;43596;-82
2020/12/18 21:20:36;;;;;;;58.33;24.95;;;;;;;-0.89;100.00;100245.48;4172723;84;44132;-87
2020/12/18 21:26:38;;;;;;;52.30;26.82;;;;;;;-0.78;100.00;100235.36;4170248;84;43597;-82
2020/12/18 21:32:41;;;;;;;55.85;27.93;;;;;;;-0.93;100.00;100240.61;4172455;84;43812;-82
2020/12/18 21:38:43;;;;;;;61.83;28.65;;;;;;;-0.81;100.00;100239.59;4170187;84;43438;-81
2020/12/18 21:44:45;;;;;;;69.12;30.55;;;;;;;-0.96;100.00;100243.02;4167532;84;44151;-83
2020/12/18 21:50:53;;;;;;;67.00;31.07;;;;;;;-1.26;100.00;100255.92;4171641;84;28591;-81
2020/12/18 21:56:56;;;;;;;72.17;33.53;;;;;;;-1.53;100.00;100247.61;4146607;84;28640;-81
2020/12/18 22:03:03;;;;;;;72.12;33.80;;;;;;;-1.46;100.00;100241.72;4145531;84;44089;-80
2020/12/18 22:09:05;;;;;;;74.20;33.20;;;;;;;-1.41;100.00;100244.84;4138782;85;44082;-81
2020/12/18 22:15:08;;;;;;;76.17;35.15;;;;;;;-1.47;100.00;100237.41;4116346;85;43405;-82
2020/12/18 22:21:10;;;;;;;78.65;35.33;;;;;;;-1.46;100.00;100230.31;4108905;85;43391;-83
2020/12/18 22:27:12;;;;;;;79.07;36.45;;;;;;;-1.36;100.00;100215.91;4115336;85;43418;-81
2020/12/18 22:33:14;;;;;;;70.55;32.93;;;;;;;-1.48;100.00;100219.05;4096701;85;44108;-78
2020/12/18 22:39:18;;;;;;;76.70;33.73;;;;;;;-1.15;100.00;100215.95;4130879;85;42974;-80
2020/12/18 22:45:22;;;;;;;70.30;31.93;;;;;;;-1.27;100.00;100226.55;4122801;85;44156;-79
2020/12/18 22:51:26;;;;;;;78.90;35.63;;;;;;;-1.30;100.00;100237.36;4134302;85;43797;-80
2020/12/18 22:57:29;;;;;;;79.95;36.45;;;;;;;-1.30;100.00;100228.13;4107074;85;43430;-78
2020/12/18 23:03:35;;;;;;;75.52;33.63;;;;;;;-1.34;100.00;100233.30;4101303;85;43679;-79
2020/12/18 23:09:37;;;;;;;73.97;33.83;;;;;;;-1.46;100.00;100233.80;4086018;85;44119;-78
2020/12/18 23:15:39;;;;;;;73.40;31.70;;;;;;;-1.23;100.00;100228.95;4069596;86;44123;-79
2020/12/18 23:21:41;;;;;;;75.55;33.83;;;;;;;-1.06;100.00;100233.67;4069070;86;44107;-79
2020/12/18 23:27:44;;;;;;;72.60;32.75;;;;;;;-1.18;100.00;100216.20;4086166;86;44165;-79
2020/12/18 23:33:52;;;;;;;75.08;32.48;;;;;;;-1.07;100.00;100216.66;4159705;84;44100;-79
2020/12/18 23:39:54;;;;;;;74.37;34.48;;;;;;;-1.04;100.00;100222.53;4142710;84;44159;-79
2020/12/18 23:52:09;;;;;;;72.92;33.50;;;;;;;-1.25;100.00;100214.55;4402786;79;86182;-79
2020/12/18 23:58:12;;;;;;;70.57;32.67;;;;;;;-1.00;100.00;100212.06;4289851;82;44077;-77
